createdAt,value
2017-12-16T00:00:25.650Z,0
2017-12-16T00:01:27.027Z,0
2017-12-16T00:02:28.408Z,0
2017-12-16T00:03:29.789Z,0
2017-12-16T00:04:31.173Z,0
2017-12-16T00:05:32.557Z,0
2017-12-16T00:06:33.942Z,0
2017-12-16T00:07:35.322Z,0
2017-12-16T00:08:36.725Z,0
2017-12-16T00:09:38.109Z,0
2017-12-16T00:10:39.490Z,0
2017-12-16T00:11:40.874Z,0
2017-12-16T00:12:42.256Z,0
2017-12-16T00:13:43.636Z,0
2017-12-16T00:14:45.017Z,0
2017-12-16T00:15:46.398Z,0
2017-12-16T00:16:47.828Z,0
2017-12-16T00:17:49.163Z,0
2017-12-16T00:18:50.544Z,0
2017-12-16T00:19:51.924Z,0
2017-12-16T00:20:53.307Z,0
2017-12-16T00:21:54.686Z,0
2017-12-16T00:22:56.068Z,0
2017-12-16T00:23:57.450Z,0
2017-12-16T00:24:58.830Z,0
2017-12-16T00:26:00.216Z,0
2017-12-16T00:27:01.597Z,0
2017-12-16T00:28:02.978Z,0
2017-12-16T00:29:04.357Z,0
2017-12-16T00:30:05.739Z,0
2017-12-16T00:31:07.120Z,0
2017-12-16T00:32:08.506Z,0
2017-12-16T00:33:09.888Z,0
2017-12-16T00:34:11.270Z,0
2017-12-16T00:35:12.654Z,0
2017-12-16T00:36:14.035Z,0
2017-12-16T00:37:15.417Z,0
2017-12-16T00:38:16.795Z,0
2017-12-16T00:39:18.178Z,0
2017-12-16T00:40:19.617Z,0
2017-12-16T00:41:20.941Z,0
2017-12-16T00:42:22.328Z,0
2017-12-16T00:43:23.707Z,0
2017-12-16T00:44:25.089Z,0
2017-12-16T00:45:26.469Z,0
2017-12-16T00:46:27.851Z,0
2017-12-16T00:47:29.232Z,0
2017-12-16T00:48:30.662Z,0
2017-12-16T00:49:32.098Z,0
2017-12-16T00:50:33.478Z,0
2017-12-16T00:51:34.856Z,0
2017-12-16T00:52:36.240Z,0
2017-12-16T00:53:37.620Z,0
2017-12-16T00:54:39.002Z,0
2017-12-16T00:55:40.383Z,0
2017-12-16T00:56:41.766Z,0
2017-12-16T00:57:43.149Z,0
2017-12-16T00:58:44.530Z,0
2017-12-16T00:59:45.911Z,0
2017-12-16T01:00:47.292Z,0
2017-12-16T01:01:48.675Z,0
2017-12-16T01:02:50.058Z,0
2017-12-16T01:03:51.442Z,0
2017-12-16T01:04:52.824Z,0
2017-12-16T01:05:54.202Z,0
2017-12-16T01:06:55.591Z,0
2017-12-16T01:07:56.965Z,0
2017-12-16T01:08:58.344Z,0
2017-12-16T01:09:59.733Z,0
2017-12-16T01:11:01.112Z,0
2017-12-16T01:12:02.494Z,0
2017-12-16T01:13:03.875Z,0
2017-12-16T01:14:05.257Z,0
2017-12-16T01:15:06.638Z,0
2017-12-16T01:16:08.018Z,0
2017-12-16T01:17:09.404Z,0
2017-12-16T01:18:10.783Z,0
2017-12-16T01:19:12.161Z,0
2017-12-16T01:20:13.543Z,0
2017-12-16T01:21:14.923Z,0
2017-12-16T01:22:16.303Z,0
2017-12-16T01:23:17.686Z,0
2017-12-16T01:24:19.068Z,0
2017-12-16T01:25:20.451Z,0
2017-12-16T01:26:21.830Z,0
2017-12-16T01:27:23.210Z,0
2017-12-16T01:28:24.592Z,0
2017-12-16T01:29:25.974Z,0
2017-12-16T01:30:27.359Z,0
2017-12-16T01:31:28.739Z,0
2017-12-16T01:32:30.123Z,0
2017-12-16T01:33:31.501Z,0
2017-12-16T01:34:32.880Z,0
2017-12-16T01:35:34.258Z,0
2017-12-16T01:36:35.636Z,0
2017-12-16T01:37:37.020Z,0
2017-12-16T01:38:38.437Z,0
2017-12-16T01:39:39.822Z,0
2017-12-16T01:40:41.205Z,0
2017-12-16T01:41:42.585Z,0
2017-12-16T01:42:43.968Z,0
2017-12-16T01:43:45.350Z,0
2017-12-16T01:44:46.732Z,0
2017-12-16T01:45:48.117Z,0
2017-12-16T01:46:49.499Z,0
2017-12-16T01:47:50.880Z,0
2017-12-16T01:48:52.260Z,0
2017-12-16T01:49:53.641Z,0
2017-12-16T01:50:55.022Z,0
2017-12-16T01:51:56.404Z,0
2017-12-16T01:52:57.789Z,0
2017-12-16T01:53:59.170Z,0
2017-12-16T01:55:00.609Z,0
2017-12-16T01:56:01.932Z,0
2017-12-16T01:57:03.313Z,0
2017-12-16T01:58:04.696Z,0
2017-12-16T01:59:06.078Z,0
2017-12-16T02:00:07.464Z,0
2017-12-16T02:01:08.845Z,0
2017-12-16T02:02:10.226Z,0
2017-12-16T02:03:11.609Z,0
2017-12-16T02:04:12.988Z,0
2017-12-16T02:05:14.374Z,0
2017-12-16T02:06:15.755Z,0
2017-12-16T02:07:17.139Z,0
2017-12-16T02:08:18.523Z,0
2017-12-16T02:09:19.902Z,0
2017-12-16T02:10:21.283Z,0
2017-12-16T02:11:22.667Z,0
2017-12-16T02:12:24.049Z,0
2017-12-16T02:13:25.434Z,0
2017-12-16T02:14:26.815Z,0
2017-12-16T02:15:28.202Z,0
2017-12-16T02:16:29.584Z,0
2017-12-16T02:17:30.967Z,0
2017-12-16T02:18:32.354Z,0
2017-12-16T02:19:33.734Z,0
2017-12-16T02:20:35.117Z,0
2017-12-16T02:21:36.500Z,0
2017-12-16T02:22:37.886Z,0
2017-12-16T02:23:39.270Z,0
2017-12-16T02:24:40.649Z,0
2017-12-16T02:25:42.029Z,0
2017-12-16T02:26:43.416Z,0
2017-12-16T02:27:44.853Z,0
2017-12-16T02:28:46.246Z,0
2017-12-16T02:29:47.630Z,0
2017-12-16T02:30:49.012Z,0
2017-12-16T02:31:50.393Z,0
2017-12-16T02:32:51.775Z,0
2017-12-16T02:33:53.158Z,0
2017-12-16T02:34:54.541Z,0
2017-12-16T02:35:55.921Z,0
2017-12-16T02:36:57.303Z,0
2017-12-16T02:37:58.691Z,0
2017-12-16T02:39:00.081Z,0
2017-12-16T02:40:01.456Z,0
2017-12-16T02:41:02.843Z,0
2017-12-16T02:42:04.224Z,0
2017-12-16T02:43:05.606Z,0
2017-12-16T02:44:06.991Z,0
2017-12-16T02:45:08.370Z,0
2017-12-16T02:46:09.751Z,0
2017-12-16T02:47:11.132Z,0
2017-12-16T02:48:12.515Z,0
2017-12-16T02:49:13.900Z,0
2017-12-16T02:50:15.282Z,0
2017-12-16T02:51:16.665Z,0
2017-12-16T02:52:18.047Z,0
2017-12-16T02:53:19.425Z,0
2017-12-16T02:54:20.808Z,0
2017-12-16T02:55:22.189Z,0
2017-12-16T02:56:23.573Z,0
2017-12-16T02:57:24.956Z,0
2017-12-16T02:58:26.337Z,0
2017-12-16T02:59:27.718Z,0
2017-12-16T03:00:29.100Z,0
2017-12-16T03:01:30.487Z,0
2017-12-16T03:02:31.864Z,0
2017-12-16T03:03:33.247Z,0
2017-12-16T03:04:34.628Z,0
2017-12-16T03:05:36.012Z,0
2017-12-16T03:06:37.399Z,0
2017-12-16T03:07:38.774Z,0
2017-12-16T03:08:40.156Z,0
2017-12-16T03:09:41.539Z,0
2017-12-16T03:10:42.932Z,0
2017-12-16T03:11:44.311Z,0
2017-12-16T03:12:45.697Z,0
2017-12-16T03:13:47.077Z,0
2017-12-16T03:14:48.458Z,0
2017-12-16T03:15:49.842Z,0
2017-12-16T03:16:51.224Z,0
2017-12-16T03:17:52.623Z,0
2017-12-16T03:18:54.007Z,0
2017-12-16T03:19:55.393Z,0
2017-12-16T03:20:56.774Z,0
2017-12-16T03:21:58.154Z,0
2017-12-16T03:22:59.534Z,0
2017-12-16T03:24:00.916Z,0
2017-12-16T03:25:02.301Z,0
2017-12-16T03:26:03.684Z,0
2017-12-16T03:27:05.069Z,0
2017-12-16T03:28:06.446Z,0
2017-12-16T03:29:07.829Z,0
2017-12-16T03:30:09.213Z,0
2017-12-16T03:31:10.600Z,0
2017-12-16T03:32:11.975Z,0
2017-12-16T03:33:13.358Z,0
2017-12-16T03:34:14.741Z,0
2017-12-16T03:35:16.124Z,0
2017-12-16T03:36:17.506Z,0
2017-12-16T03:37:18.888Z,0
2017-12-16T03:38:20.271Z,0
2017-12-16T03:39:21.654Z,0
2017-12-16T03:40:23.039Z,0
2017-12-16T03:41:24.422Z,0
2017-12-16T03:42:25.803Z,0
2017-12-16T03:43:27.179Z,0
2017-12-16T03:44:28.561Z,0
2017-12-16T03:45:29.945Z,0
2017-12-16T03:46:31.343Z,0
2017-12-16T03:47:32.729Z,0
2017-12-16T03:48:34.114Z,0
2017-12-16T03:49:35.495Z,0
2017-12-16T03:50:36.876Z,0
2017-12-16T03:51:38.261Z,0
2017-12-16T03:52:39.641Z,0
2017-12-16T03:53:41.024Z,0
2017-12-16T03:54:42.406Z,0
2017-12-16T03:55:43.792Z,0
2017-12-16T03:56:45.172Z,0
2017-12-16T03:57:46.552Z,0
2017-12-16T03:58:47.932Z,0
2017-12-16T03:59:49.317Z,0
2017-12-16T04:00:50.698Z,0
2017-12-16T04:01:52.085Z,0
2017-12-16T04:02:53.517Z,0
2017-12-16T04:03:54.845Z,0
2017-12-16T04:04:56.225Z,0
2017-12-16T04:05:57.604Z,0
2017-12-16T04:06:59.028Z,0
2017-12-16T04:08:00.412Z,0
2017-12-16T04:09:01.796Z,0
2017-12-16T04:10:03.179Z,0
2017-12-16T04:11:04.561Z,0
2017-12-16T04:12:05.942Z,0
2017-12-16T04:13:07.327Z,0
2017-12-16T04:14:08.706Z,0
2017-12-16T04:15:10.089Z,0
2017-12-16T04:16:11.472Z,0
2017-12-16T04:17:12.856Z,0
2017-12-16T04:18:14.240Z,0
2017-12-16T04:19:15.620Z,0
2017-12-16T04:20:17.001Z,0
2017-12-16T04:21:18.383Z,0
2017-12-16T04:22:19.768Z,0
2017-12-16T04:23:21.149Z,0
2017-12-16T04:24:22.533Z,0
2017-12-16T04:25:23.913Z,0
2017-12-16T04:26:25.294Z,0
2017-12-16T04:27:26.677Z,0
2017-12-16T04:28:28.059Z,0
2017-12-16T04:29:29.440Z,0
2017-12-16T04:30:30.824Z,0
2017-12-16T04:31:32.213Z,0
2017-12-16T04:32:33.590Z,0
2017-12-16T04:33:34.970Z,0
2017-12-16T04:34:36.350Z,0
2017-12-16T04:35:37.739Z,0
2017-12-16T04:36:39.115Z,0
2017-12-16T04:37:40.498Z,0
2017-12-16T04:38:41.880Z,0
2017-12-16T04:39:43.260Z,0
2017-12-16T04:40:44.639Z,0
2017-12-16T04:41:46.020Z,0
2017-12-16T04:42:47.400Z,0
2017-12-16T04:43:48.786Z,0
2017-12-16T04:44:50.169Z,0
2017-12-16T04:45:51.552Z,0
2017-12-16T04:46:52.934Z,0
2017-12-16T04:47:54.313Z,0
2017-12-16T04:48:55.697Z,0
2017-12-16T04:49:57.079Z,0
2017-12-16T04:50:58.462Z,0
2017-12-16T04:51:59.844Z,0
2017-12-16T04:53:01.233Z,0
2017-12-16T04:54:02.612Z,0
2017-12-16T04:55:03.991Z,0
2017-12-16T04:56:05.374Z,0
2017-12-16T04:57:06.753Z,0
2017-12-16T04:58:08.139Z,0
2017-12-16T04:59:09.524Z,0
2017-12-16T05:00:10.908Z,0
2017-12-16T05:01:12.287Z,0
2017-12-16T05:02:13.666Z,0
2017-12-16T05:03:15.052Z,0
2017-12-16T05:04:16.435Z,0
2017-12-16T05:05:17.816Z,0
2017-12-16T05:06:19.197Z,0
2017-12-16T05:07:20.579Z,0
2017-12-16T05:08:21.959Z,0
2017-12-16T05:09:23.349Z,0
2017-12-16T05:10:24.723Z,0
2017-12-16T05:11:26.107Z,0
2017-12-16T05:12:27.489Z,0
2017-12-16T05:13:28.873Z,0
2017-12-16T05:14:30.258Z,0
2017-12-16T05:15:31.640Z,0
2017-12-16T05:16:33.016Z,0
2017-12-16T05:17:34.396Z,0
2017-12-16T05:18:35.782Z,0
2017-12-16T05:19:37.165Z,0
2017-12-16T05:20:38.547Z,0
2017-12-16T05:21:39.930Z,0
2017-12-16T05:22:41.307Z,0
2017-12-16T05:23:42.687Z,0
2017-12-16T05:24:44.068Z,0
2017-12-16T05:25:45.451Z,0
2017-12-16T05:26:46.837Z,0
2017-12-16T05:27:48.217Z,0
2017-12-16T05:28:49.600Z,0
2017-12-16T05:29:50.983Z,0
2017-12-16T05:30:52.361Z,0
2017-12-16T05:31:53.744Z,0
2017-12-16T05:32:55.124Z,0
2017-12-16T05:33:56.504Z,0
2017-12-16T05:34:57.888Z,0
2017-12-16T05:35:59.269Z,0
2017-12-16T05:37:00.648Z,0
2017-12-16T05:38:02.030Z,0
2017-12-16T05:39:03.413Z,0
2017-12-16T05:40:04.793Z,0
2017-12-16T05:41:06.176Z,0
2017-12-16T05:42:07.559Z,0
2017-12-16T05:43:08.945Z,0
2017-12-16T05:44:10.324Z,0
2017-12-16T05:45:11.703Z,0
2017-12-16T05:46:13.173Z,0
2017-12-16T05:47:14.552Z,0
2017-12-16T05:48:15.934Z,0
2017-12-16T05:49:17.317Z,0
2017-12-16T05:50:18.698Z,0
2017-12-16T05:51:20.079Z,0
2017-12-16T05:52:21.459Z,0
2017-12-16T05:53:22.842Z,0
2017-12-16T05:54:24.227Z,0
2017-12-16T05:55:25.608Z,0
2017-12-16T05:56:26.990Z,0
2017-12-16T05:57:28.376Z,0
2017-12-16T05:58:29.752Z,0
2017-12-16T05:59:31.132Z,0
2017-12-16T06:00:32.513Z,0
2017-12-16T06:01:33.896Z,0
2017-12-16T06:02:35.284Z,0
2017-12-16T06:03:36.658Z,0
2017-12-16T06:04:38.046Z,0
2017-12-16T06:05:39.425Z,0
2017-12-16T06:06:40.804Z,0
2017-12-16T06:07:42.182Z,0
2017-12-16T06:08:43.564Z,0
2017-12-16T06:09:44.948Z,0
2017-12-16T06:10:46.330Z,0
2017-12-16T06:11:47.715Z,0
2017-12-16T06:12:49.093Z,0
2017-12-16T06:13:50.473Z,0
2017-12-16T06:14:51.853Z,0
2017-12-16T06:15:53.235Z,0
2017-12-16T06:16:54.642Z,0
2017-12-16T06:17:56.023Z,0
2017-12-16T06:18:57.411Z,0
2017-12-16T06:19:58.788Z,0
2017-12-16T06:21:00.170Z,0
2017-12-16T06:22:01.549Z,0
2017-12-16T06:23:02.931Z,0
2017-12-16T06:24:04.312Z,0
2017-12-16T06:25:05.696Z,0
2017-12-16T06:26:07.081Z,0
2017-12-16T06:27:08.461Z,0
2017-12-16T06:28:09.841Z,0
2017-12-16T06:29:11.228Z,0
2017-12-16T06:30:12.603Z,0
2017-12-16T06:31:13.987Z,0
2017-12-16T06:32:15.369Z,0
2017-12-16T06:33:16.751Z,0
2017-12-16T06:34:18.133Z,0
2017-12-16T06:35:19.512Z,0
2017-12-16T06:36:20.905Z,0
2017-12-16T06:37:22.297Z,0
2017-12-16T06:38:23.682Z,0
2017-12-16T06:39:25.062Z,0
2017-12-16T06:40:26.445Z,0
2017-12-16T06:41:27.826Z,0
2017-12-16T06:42:29.256Z,0
2017-12-16T06:43:30.590Z,0
2017-12-16T06:44:31.971Z,0
2017-12-16T06:45:33.351Z,0
2017-12-16T06:46:34.732Z,0
2017-12-16T06:47:36.116Z,0
2017-12-16T06:48:37.494Z,0
2017-12-16T06:49:38.876Z,0
2017-12-16T06:50:40.263Z,0
2017-12-16T06:51:41.638Z,0
2017-12-16T06:52:43.022Z,0
2017-12-16T06:53:44.404Z,0
2017-12-16T06:54:45.788Z,0
2017-12-16T06:55:47.166Z,0
2017-12-16T06:56:48.548Z,0
2017-12-16T06:57:49.930Z,0
2017-12-16T06:58:51.311Z,0
2017-12-16T06:59:52.704Z,0
2017-12-16T07:00:54.177Z,0
2017-12-16T07:01:55.567Z,0
2017-12-16T07:02:56.949Z,0
2017-12-16T07:03:58.329Z,0
2017-12-16T07:04:59.710Z,0
2017-12-16T07:06:01.105Z,0
2017-12-16T07:07:02.475Z,0
2017-12-16T07:08:03.862Z,0
2017-12-16T07:09:05.245Z,0
2017-12-16T07:10:06.625Z,0
2017-12-16T07:11:08.003Z,0
2017-12-16T07:12:09.385Z,0
2017-12-16T07:13:10.816Z,0
2017-12-16T07:14:12.201Z,0
2017-12-16T07:15:13.580Z,0
2017-12-16T07:16:14.973Z,0
2017-12-16T07:17:16.349Z,0
2017-12-16T07:18:17.738Z,0
2017-12-16T07:19:19.122Z,0
2017-12-16T07:20:20.506Z,0
2017-12-16T07:21:21.888Z,0
2017-12-16T07:22:23.274Z,0
2017-12-16T07:23:24.661Z,0
2017-12-16T07:24:26.046Z,0
2017-12-16T07:25:27.482Z,0
2017-12-16T07:26:28.871Z,0
2017-12-16T07:27:30.259Z,0
2017-12-16T07:28:31.642Z,0
2017-12-16T07:29:33.027Z,0
2017-12-16T07:30:34.410Z,0
2017-12-16T07:31:35.792Z,0
2017-12-16T07:32:37.173Z,0
2017-12-16T07:33:38.556Z,0
2017-12-16T07:34:39.939Z,0
2017-12-16T07:35:41.323Z,0
2017-12-16T07:36:42.743Z,0
2017-12-16T07:37:44.092Z,0
2017-12-16T07:38:45.536Z,0
2017-12-16T07:39:46.920Z,0
2017-12-16T07:40:48.312Z,5
2017-12-16T07:41:49.696Z,5
2017-12-16T07:42:51.080Z,5
2017-12-16T07:43:52.463Z,5
2017-12-16T07:44:53.848Z,5
2017-12-16T07:45:55.230Z,5
2017-12-16T07:46:56.612Z,5
2017-12-16T07:47:57.994Z,5
2017-12-16T07:48:59.382Z,5
2017-12-16T07:50:00.765Z,5
2017-12-16T07:51:02.150Z,5
2017-12-16T07:52:03.538Z,5
2017-12-16T07:53:04.947Z,5
2017-12-16T07:54:06.331Z,5
2017-12-16T07:55:07.716Z,5
2017-12-16T07:56:09.097Z,5
2017-12-16T07:57:10.483Z,11
2017-12-16T07:58:11.870Z,11
2017-12-16T07:59:13.321Z,11
2017-12-16T08:00:14.843Z,11
2017-12-16T08:01:16.233Z,11
2017-12-16T08:02:17.622Z,16
2017-12-16T08:03:19.084Z,16
2017-12-16T08:04:20.470Z,16
2017-12-16T08:05:21.857Z,16
2017-12-16T08:06:23.252Z,16
2017-12-16T08:07:24.635Z,16
2017-12-16T08:08:26.019Z,16
2017-12-16T08:09:27.406Z,16
2017-12-16T08:10:28.791Z,16
2017-12-16T08:11:30.207Z,16
2017-12-16T08:12:31.567Z,16
2017-12-16T08:13:32.944Z,22
2017-12-16T08:14:34.345Z,22
2017-12-16T08:15:35.729Z,22
2017-12-16T08:16:37.115Z,22
2017-12-16T08:17:38.498Z,22
2017-12-16T08:18:39.886Z,16
2017-12-16T08:19:41.273Z,16
2017-12-16T08:20:42.703Z,22
2017-12-16T08:21:44.087Z,22
2017-12-16T08:22:45.472Z,28
2017-12-16T08:23:46.856Z,28
2017-12-16T08:24:48.575Z,33
2017-12-16T08:25:49.968Z,39
2017-12-16T08:26:51.375Z,39
2017-12-16T08:27:52.753Z,39
2017-12-16T08:28:54.138Z,39
2017-12-16T08:29:55.522Z,39
2017-12-16T08:30:56.911Z,33
2017-12-16T08:31:58.290Z,33
2017-12-16T08:32:59.676Z,33
2017-12-16T08:34:01.060Z,33
2017-12-16T08:35:02.459Z,28
2017-12-16T08:36:03.844Z,28
2017-12-16T08:37:05.230Z,28
2017-12-16T08:38:06.612Z,28
2017-12-16T08:39:07.997Z,28
2017-12-16T08:40:09.391Z,33
2017-12-16T08:41:10.772Z,28
2017-12-16T08:42:12.159Z,28
2017-12-16T08:43:13.542Z,33
2017-12-16T08:44:14.926Z,33
2017-12-16T08:45:16.311Z,39
2017-12-16T08:46:17.696Z,50
2017-12-16T08:47:19.081Z,61
2017-12-16T08:48:20.471Z,73
2017-12-16T08:49:21.860Z,73
2017-12-16T08:50:23.248Z,61
2017-12-16T08:51:24.636Z,56
2017-12-16T08:52:26.023Z,56
2017-12-16T08:53:27.610Z,56
2017-12-16T08:54:29.175Z,56
2017-12-16T08:55:30.683Z,61
2017-12-16T08:56:32.366Z,61
2017-12-16T08:57:34.061Z,61
2017-12-16T08:58:35.667Z,56
2017-12-16T08:59:37.332Z,56
2017-12-16T09:00:38.986Z,45
2017-12-16T09:01:40.627Z,45
2017-12-16T09:02:42.272Z,56
2017-12-16T09:03:43.902Z,73
2017-12-16T09:04:45.525Z,90
2017-12-16T09:05:47.962Z,90
2017-12-16T09:06:49.622Z,78
2017-12-16T09:07:51.224Z,67
2017-12-16T09:08:52.863Z,67
2017-12-16T09:09:54.521Z,61
2017-12-16T09:10:56.060Z,56
2017-12-16T09:11:57.685Z,50
2017-12-16T09:12:59.441Z,56
2017-12-16T09:14:01.094Z,61
2017-12-16T09:15:02.711Z,73
2017-12-16T09:16:04.219Z,73
2017-12-16T09:17:05.813Z,78
2017-12-16T09:18:08.437Z,90
2017-12-16T09:19:10.185Z,95
2017-12-16T09:20:11.772Z,90
2017-12-16T09:21:13.278Z,95
2017-12-16T09:22:14.978Z,112
2017-12-16T09:23:17.310Z,112
2017-12-16T09:24:19.096Z,106
2017-12-16T09:25:22.094Z,106
2017-12-16T09:26:23.742Z,101
2017-12-16T09:27:25.370Z,106
2017-12-16T09:28:26.965Z,106
2017-12-16T09:29:28.713Z,123
2017-12-16T09:30:30.309Z,112
2017-12-16T09:31:31.979Z,112
2017-12-16T09:32:33.596Z,163
2017-12-16T09:33:35.205Z,168
2017-12-16T09:34:36.878Z,191
2017-12-16T09:35:38.507Z,180
2017-12-16T09:36:40.076Z,185
2017-12-16T09:37:41.544Z,168
2017-12-16T09:38:43.130Z,174
2017-12-16T09:39:45.460Z,140
2017-12-16T09:40:47.107Z,78
2017-12-16T09:41:48.825Z,61
2017-12-16T09:42:50.501Z,61
2017-12-16T09:43:52.153Z,61
2017-12-16T09:44:53.800Z,67
2017-12-16T09:45:55.335Z,84
2017-12-16T09:46:56.980Z,84
2017-12-16T09:47:58.620Z,78
2017-12-16T09:49:00.334Z,73
2017-12-16T09:50:01.862Z,50
2017-12-16T09:51:03.473Z,50
2017-12-16T09:52:04.925Z,56
2017-12-16T09:53:06.660Z,61
2017-12-16T09:54:08.364Z,73
2017-12-16T09:55:10.086Z,78
2017-12-16T09:56:11.477Z,78
2017-12-16T09:57:12.867Z,78
2017-12-16T09:58:14.252Z,78
2017-12-16T09:59:15.639Z,67
2017-12-16T10:00:17.029Z,84
2017-12-16T10:01:18.414Z,78
2017-12-16T10:02:19.799Z,95
2017-12-16T10:03:21.186Z,140
2017-12-16T10:04:22.573Z,112
2017-12-16T10:05:23.960Z,90
2017-12-16T10:06:25.348Z,73
2017-12-16T10:07:26.736Z,61
2017-12-16T10:08:28.123Z,61
2017-12-16T10:09:29.565Z,61
2017-12-16T10:10:30.969Z,61
2017-12-16T10:11:32.356Z,73
2017-12-16T10:12:33.745Z,106
2017-12-16T10:13:35.131Z,118
2017-12-16T10:14:36.520Z,118
2017-12-16T10:15:37.988Z,90
2017-12-16T10:16:39.379Z,73
2017-12-16T10:17:40.759Z,56
2017-12-16T10:18:42.142Z,45
2017-12-16T10:19:43.527Z,28
2017-12-16T10:20:44.912Z,28
2017-12-16T10:21:46.302Z,33
2017-12-16T10:22:47.687Z,39
2017-12-16T10:23:49.070Z,56
2017-12-16T10:24:50.456Z,67
2017-12-16T10:25:51.841Z,84
2017-12-16T10:26:53.228Z,95
2017-12-16T10:27:54.617Z,118
2017-12-16T10:28:56.012Z,118
2017-12-16T10:29:57.393Z,123
2017-12-16T10:30:58.823Z,135
2017-12-16T10:32:00.208Z,135
2017-12-16T10:33:01.603Z,129
2017-12-16T10:34:02.983Z,118
2017-12-16T10:35:04.375Z,101
2017-12-16T10:36:05.762Z,101
2017-12-16T10:37:07.151Z,112
2017-12-16T10:38:08.537Z,123
2017-12-16T10:39:09.923Z,129
2017-12-16T10:40:11.310Z,163
2017-12-16T10:41:12.701Z,163
2017-12-16T10:42:14.090Z,151
2017-12-16T10:43:15.478Z,118
2017-12-16T10:44:16.869Z,101
2017-12-16T10:45:18.254Z,90
2017-12-16T10:46:19.639Z,84
2017-12-16T10:47:21.035Z,90
2017-12-16T10:48:22.470Z,101
2017-12-16T10:49:23.807Z,101
2017-12-16T10:50:25.194Z,73
2017-12-16T10:51:26.585Z,106
2017-12-16T10:52:27.973Z,129
2017-12-16T10:53:29.360Z,151
2017-12-16T10:54:30.748Z,140
2017-12-16T10:55:32.138Z,140
2017-12-16T10:56:33.593Z,174
2017-12-16T10:57:34.981Z,202
2017-12-16T10:58:36.370Z,264
2017-12-16T10:59:37.774Z,258
2017-12-16T11:00:39.161Z,168
2017-12-16T11:01:40.547Z,247
2017-12-16T11:02:41.938Z,168
2017-12-16T11:03:43.332Z,230
2017-12-16T11:04:44.718Z,236
2017-12-16T11:05:46.106Z,185
2017-12-16T11:06:47.497Z,202
2017-12-16T11:07:48.880Z,146
2017-12-16T11:08:50.268Z,135
2017-12-16T11:09:51.654Z,129
2017-12-16T11:10:53.041Z,135
2017-12-16T11:11:54.429Z,135
2017-12-16T11:12:55.819Z,123
2017-12-16T11:13:57.204Z,123
2017-12-16T11:14:58.591Z,101
2017-12-16T11:16:00.278Z,101
2017-12-16T11:17:01.662Z,101
2017-12-16T11:18:03.052Z,241
2017-12-16T11:19:04.443Z,146
2017-12-16T11:20:05.832Z,163
2017-12-16T11:21:07.225Z,163
2017-12-16T11:22:08.611Z,174
2017-12-16T11:23:10.001Z,101
2017-12-16T11:24:11.387Z,84
2017-12-16T11:25:12.777Z,84
2017-12-16T11:26:14.162Z,78
2017-12-16T11:27:15.554Z,90
2017-12-16T11:28:16.940Z,101
2017-12-16T11:29:18.324Z,135
2017-12-16T11:30:19.719Z,174
2017-12-16T11:31:21.110Z,168
2017-12-16T11:32:22.498Z,118
2017-12-16T11:33:23.886Z,78
2017-12-16T11:34:25.277Z,61
2017-12-16T11:35:26.664Z,67
2017-12-16T11:36:28.050Z,73
2017-12-16T11:37:29.439Z,84
2017-12-16T11:38:30.829Z,84
2017-12-16T11:39:32.215Z,73
2017-12-16T11:40:33.606Z,78
2017-12-16T11:41:35.007Z,73
2017-12-16T11:42:36.395Z,67
2017-12-16T11:43:37.779Z,78
2017-12-16T11:44:39.168Z,84
2017-12-16T11:45:40.558Z,106
2017-12-16T11:46:42.007Z,90
2017-12-16T11:47:43.394Z,123
2017-12-16T11:48:44.789Z,140
2017-12-16T11:49:46.171Z,118
2017-12-16T11:50:47.558Z,118
2017-12-16T11:51:48.942Z,123
2017-12-16T11:52:50.330Z,146
2017-12-16T11:53:51.741Z,123
2017-12-16T11:54:53.125Z,140
2017-12-16T11:55:54.512Z,292
2017-12-16T11:56:56.078Z,236
2017-12-16T11:57:57.468Z,208
2017-12-16T11:58:58.853Z,230
2017-12-16T12:00:00.246Z,354
2017-12-16T12:01:01.636Z,309
2017-12-16T12:02:03.026Z,585
2017-12-16T12:03:04.414Z,973
2017-12-16T12:04:05.804Z,866
2017-12-16T12:05:07.339Z,765
2017-12-16T12:06:08.730Z,691
2017-12-16T12:07:10.148Z,405
2017-12-16T12:08:11.595Z,556
2017-12-16T12:09:12.996Z,596
2017-12-16T12:10:14.391Z,607
2017-12-16T12:11:15.781Z,601
2017-12-16T12:12:17.170Z,607
2017-12-16T12:13:18.559Z,585
2017-12-16T12:14:19.951Z,573
2017-12-16T12:15:21.345Z,517
2017-12-16T12:16:22.740Z,534
2017-12-16T12:17:24.134Z,579
2017-12-16T12:18:25.548Z,596
2017-12-16T12:19:26.942Z,607
2017-12-16T12:20:28.341Z,506
2017-12-16T12:21:29.730Z,241
2017-12-16T12:22:31.125Z,281
2017-12-16T12:23:32.524Z,253
2017-12-16T12:24:33.910Z,466
2017-12-16T12:25:35.307Z,472
2017-12-16T12:26:36.696Z,585
2017-12-16T12:27:38.092Z,562
2017-12-16T12:28:39.485Z,123
2017-12-16T12:29:40.877Z,106
2017-12-16T12:30:42.275Z,545
2017-12-16T12:31:43.672Z,534
2017-12-16T12:32:45.067Z,523
2017-12-16T12:33:46.464Z,534
2017-12-16T12:34:47.852Z,433
2017-12-16T12:35:49.284Z,180
2017-12-16T12:36:50.680Z,461
2017-12-16T12:37:52.081Z,258
2017-12-16T12:38:53.478Z,461
2017-12-16T12:39:54.870Z,393
2017-12-16T12:40:56.265Z,450
2017-12-16T12:41:57.657Z,264
2017-12-16T12:42:59.052Z,202
2017-12-16T12:44:00.450Z,450
2017-12-16T12:45:01.845Z,444
2017-12-16T12:46:03.239Z,185
2017-12-16T12:47:04.634Z,410
2017-12-16T12:48:06.025Z,146
2017-12-16T12:49:07.420Z,135
2017-12-16T12:50:08.815Z,309
2017-12-16T12:51:10.208Z,118
2017-12-16T12:52:11.746Z,101
2017-12-16T12:53:13.135Z,95
2017-12-16T12:54:14.552Z,146
2017-12-16T12:55:15.946Z,135
2017-12-16T12:56:17.372Z,202
2017-12-16T12:57:18.798Z,95
2017-12-16T12:58:20.192Z,106
2017-12-16T12:59:21.692Z,95
2017-12-16T13:00:23.087Z,163
2017-12-16T13:01:24.999Z,163
2017-12-16T13:02:26.383Z,174
2017-12-16T13:03:27.774Z,180
2017-12-16T13:04:29.163Z,180
2017-12-16T13:05:30.556Z,163
2017-12-16T13:06:31.977Z,163
2017-12-16T13:07:33.374Z,146
2017-12-16T13:08:34.772Z,168
2017-12-16T13:09:36.153Z,157
2017-12-16T13:10:37.541Z,140
2017-12-16T13:11:38.931Z,140
2017-12-16T13:12:40.321Z,129
2017-12-16T13:13:41.711Z,106
2017-12-16T13:14:43.105Z,90
2017-12-16T13:15:44.493Z,78
2017-12-16T13:16:45.878Z,84
2017-12-16T13:17:47.267Z,78
2017-12-16T13:18:48.654Z,73
2017-12-16T13:19:50.044Z,61
2017-12-16T13:20:51.443Z,61
2017-12-16T13:21:53.008Z,56
2017-12-16T13:22:54.394Z,50
2017-12-16T13:23:55.787Z,45
2017-12-16T13:24:57.173Z,45
2017-12-16T13:25:58.561Z,50
2017-12-16T13:26:59.952Z,50
2017-12-16T13:28:01.339Z,50
2017-12-16T13:29:02.729Z,50
2017-12-16T13:30:04.117Z,50
2017-12-16T13:31:05.504Z,50
2017-12-16T13:32:06.893Z,50
2017-12-16T13:33:08.284Z,50
2017-12-16T13:34:09.673Z,50
2017-12-16T13:35:11.063Z,50
2017-12-16T13:36:12.450Z,50
2017-12-16T13:37:13.835Z,50
2017-12-16T13:38:15.228Z,45
2017-12-16T13:39:16.610Z,45
2017-12-16T13:40:17.997Z,45
2017-12-16T13:41:19.386Z,50
2017-12-16T13:42:20.772Z,50
2017-12-16T13:43:22.162Z,56
2017-12-16T13:44:23.549Z,56
2017-12-16T13:45:24.931Z,50
2017-12-16T13:46:26.321Z,45
2017-12-16T13:47:27.708Z,45
2017-12-16T13:48:29.095Z,45
2017-12-16T13:49:30.521Z,39
2017-12-16T13:50:31.909Z,45
2017-12-16T13:51:33.306Z,45
2017-12-16T13:52:34.688Z,45
2017-12-16T13:53:36.075Z,50
2017-12-16T13:54:37.461Z,50
2017-12-16T13:55:38.847Z,50
2017-12-16T13:56:40.235Z,56
2017-12-16T13:57:41.631Z,50
2017-12-16T13:58:43.012Z,50
2017-12-16T13:59:44.399Z,50
2017-12-16T14:00:45.788Z,50
2017-12-16T14:01:47.174Z,50
2017-12-16T14:02:48.561Z,50
2017-12-16T14:03:49.949Z,61
2017-12-16T14:04:51.337Z,67
2017-12-16T14:05:52.728Z,67
2017-12-16T14:06:54.103Z,61
2017-12-16T14:07:55.487Z,50
2017-12-16T14:08:56.876Z,45
2017-12-16T14:09:58.256Z,39
2017-12-16T14:10:59.668Z,39
2017-12-16T14:12:01.055Z,33
2017-12-16T14:13:02.440Z,33
2017-12-16T14:14:03.823Z,28
2017-12-16T14:15:05.211Z,28
2017-12-16T14:16:06.595Z,28
2017-12-16T14:17:07.983Z,28
2017-12-16T14:18:09.369Z,28
2017-12-16T14:19:10.762Z,28
2017-12-16T14:20:12.143Z,28
2017-12-16T14:21:13.532Z,28
2017-12-16T14:22:14.915Z,28
2017-12-16T14:23:16.301Z,22
2017-12-16T14:24:17.690Z,22
2017-12-16T14:25:19.077Z,28
2017-12-16T14:26:20.463Z,28
2017-12-16T14:27:21.851Z,28
2017-12-16T14:28:23.236Z,28
2017-12-16T14:29:24.620Z,28
2017-12-16T14:30:26.008Z,28
2017-12-16T14:31:27.396Z,28
2017-12-16T14:32:28.784Z,22
2017-12-16T14:33:30.173Z,22
2017-12-16T14:34:31.617Z,22
2017-12-16T14:35:32.945Z,22
2017-12-16T14:36:34.330Z,22
2017-12-16T14:37:35.717Z,22
2017-12-16T14:38:37.104Z,22
2017-12-16T14:39:38.491Z,22
2017-12-16T14:40:39.882Z,22
2017-12-16T14:41:41.267Z,16
2017-12-16T14:42:42.669Z,16
2017-12-16T14:43:44.041Z,16
2017-12-16T14:44:45.428Z,16
2017-12-16T14:45:46.817Z,16
2017-12-16T14:46:48.201Z,16